sensor_id;sensor_type;location;lat;lon;timestamp;P1;durP1;ratioP1;P2;durP2;ratioP2
46284;SDS011;32018;59.182;18.148;2024-03-02T00:00:56;8.70;;;8.00;;
46284;SDS011;32018;59.182;18.148;2024-03-02T00:03:24;7.47;;;6.97;;
46284;SDS011;32018;59.182;18.148;2024-03-02T00:05:50;7.18;;;6.75;;
46284;SDS011;32018;59.182;18.148;2024-03-02T00:08:19;7.18;;;6.68;;
46284;SDS011;32018;59.182;18.148;2024-03-02T00:10:47;8.35;;;7.78;;
46284;SDS011;32018;59.182;18.148;2024-03-02T00:13:12;7.65;;;7.15;;
46284;SDS011;32018;59.182;18.148;2024-03-02T00:15:56;8.05;;;7.45;;
46284;SDS011;32018;59.182;18.148;2024-03-02T00:18:25;8.27;;;7.68;;
46284;SDS011;32018;59.182;18.148;2024-03-02T00:20:54;7.82;;;7.32;;
46284;SDS011;32018;59.182;18.148;2024-03-02T00:23:21;7.63;;;7.13;;
46284;SDS011;32018;59.182;18.148;2024-03-02T00:25:47;7.43;;;6.93;;
46284;SDS011;32018;59.182;18.148;2024-03-02T00:28:14;7.43;;;6.88;;
46284;SDS011;32018;59.182;18.148;2024-03-02T00:33:12;8.88;;;8.27;;
46284;SDS011;32018;59.182;18.148;2024-03-02T00:35:37;8.02;;;7.53;;
46284;SDS011;32018;59.182;18.148;2024-03-02T00:38:05;7.20;;;6.70;;
46284;SDS011;32018;59.182;18.148;2024-03-02T00:40:34;7.43;;;6.93;;
46284;SDS011;32018;59.182;18.148;2024-03-02T00:42:59;7.72;;;7.22;;
46284;SDS011;32018;59.182;18.148;2024-03-02T00:45:25;9.40;;;8.80;;
46284;SDS011;32018;59.182;18.148;2024-03-02T00:47:50;9.23;;;8.57;;
46284;SDS011;32018;59.182;18.148;2024-03-02T00:50:15;7.53;;;6.97;;
46284;SDS011;32018;59.182;18.148;2024-03-02T00:52:41;7.95;;;7.45;;
46284;SDS011;32018;59.182;18.148;2024-03-02T00:55:06;8.82;;;8.13;;
46284;SDS011;32018;59.182;18.148;2024-03-02T00:57:33;6.70;;;6.30;;
46284;SDS011;32018;59.182;18.148;2024-03-02T00:59:59;8.43;;;7.88;;
46284;SDS011;32018;59.182;18.148;2024-03-02T01:02:24;7.10;;;6.57;;
46284;SDS011;32018;59.182;18.148;2024-03-02T01:04:49;7.75;;;7.25;;
46284;SDS011;32018;59.182;18.148;2024-03-02T01:07:15;7.38;;;6.88;;
46284;SDS011;32018;59.182;18.148;2024-03-02T01:09:40;7.10;;;6.60;;
46284;SDS011;32018;59.182;18.148;2024-03-02T01:12:06;7.35;;;6.85;;
46284;SDS011;32018;59.182;18.148;2024-03-02T01:14:31;7.00;;;6.50;;
46284;SDS011;32018;59.182;18.148;2024-03-02T01:16:56;6.50;;;6.05;;
46284;SDS011;32018;59.182;18.148;2024-03-02T01:19:22;7.32;;;6.82;;
46284;SDS011;32018;59.182;18.148;2024-03-02T01:21:47;7.03;;;6.50;;
46284;SDS011;32018;59.182;18.148;2024-03-02T01:24:12;7.45;;;6.95;;
46284;SDS011;32018;59.182;18.148;2024-03-02T01:26:38;8.38;;;7.72;;
46284;SDS011;32018;59.182;18.148;2024-03-02T01:29:03;7.82;;;7.22;;
46284;SDS011;32018;59.182;18.148;2024-03-02T01:31:28;8.80;;;8.20;;
46284;SDS011;32018;59.182;18.148;2024-03-02T01:33:54;7.45;;;7.05;;
46284;SDS011;32018;59.182;18.148;2024-03-02T01:36:19;7.10;;;6.60;;
46284;SDS011;32018;59.182;18.148;2024-03-02T01:38:44;7.28;;;6.88;;
46284;SDS011;32018;59.182;18.148;2024-03-02T01:41:09;8.02;;;7.53;;
46284;SDS011;32018;59.182;18.148;2024-03-02T01:43:37;7.35;;;6.85;;
46284;SDS011;32018;59.182;18.148;2024-03-02T01:46:03;7.93;;;7.43;;
46284;SDS011;32018;59.182;18.148;2024-03-02T01:48:28;9.50;;;8.80;;
46284;SDS011;32018;59.182;18.148;2024-03-02T01:50:54;8.15;;;7.65;;
46284;SDS011;32018;59.182;18.148;2024-03-02T01:53:19;7.47;;;6.97;;
46284;SDS011;32018;59.182;18.148;2024-03-02T01:55:44;9.27;;;8.68;;
46284;SDS011;32018;59.182;18.148;2024-03-02T01:58:10;10.27;;;9.43;;
46284;SDS011;32018;59.182;18.148;2024-03-02T02:00:35;7.47;;;6.97;;
46284;SDS011;32018;59.182;18.148;2024-03-02T02:03:00;7.88;;;7.30;;
46284;SDS011;32018;59.182;18.148;2024-03-02T02:05:26;8.60;;;8.00;;
46284;SDS011;32018;59.182;18.148;2024-03-02T02:07:51;7.20;;;6.70;;
46284;SDS011;32018;59.182;18.148;2024-03-02T02:10:16;9.10;;;8.40;;
46284;SDS011;32018;59.182;18.148;2024-03-02T02:12:41;8.02;;;7.53;;
46284;SDS011;32018;59.182;18.148;2024-03-02T02:15:25;8.05;;;7.55;;
46284;SDS011;32018;59.182;18.148;2024-03-02T02:17:51;11.55;;;10.50;;
46284;SDS011;32018;59.182;18.148;2024-03-02T02:20:16;7.85;;;7.30;;
46284;SDS011;32018;59.182;18.148;2024-03-02T02:22:52;14.63;;;13.43;;
46284;SDS011;32018;59.182;18.148;2024-03-02T02:25:17;13.57;;;12.52;;
46284;SDS011;32018;59.182;18.148;2024-03-02T02:27:43;12.77;;;10.23;;
46284;SDS011;32018;59.182;18.148;2024-03-02T02:30:08;11.55;;;10.73;;
46284;SDS011;32018;59.182;18.148;2024-03-02T02:32:34;12.18;;;10.98;;
46284;SDS011;32018;59.182;18.148;2024-03-02T02:35:01;11.38;;;10.57;;
46284;SDS011;32018;59.182;18.148;2024-03-02T02:37:29;8.65;;;8.02;;
46284;SDS011;32018;59.182;18.148;2024-03-02T02:39:55;13.55;;;12.55;;
46284;SDS011;32018;59.182;18.148;2024-03-02T02:42:20;8.73;;;8.02;;
46284;SDS011;32018;59.182;18.148;2024-03-02T02:44:45;10.90;;;10.07;;
46284;SDS011;32018;59.182;18.148;2024-03-02T02:47:10;9.25;;;8.55;;
46284;SDS011;32018;59.182;18.148;2024-03-02T02:49:35;8.45;;;7.85;;
46284;SDS011;32018;59.182;18.148;2024-03-02T02:52:01;8.77;;;8.18;;
46284;SDS011;32018;59.182;18.148;2024-03-02T02:54:26;9.00;;;8.30;;
46284;SDS011;32018;59.182;18.148;2024-03-02T02:56:51;8.32;;;7.72;;
46284;SDS011;32018;59.182;18.148;2024-03-02T02:59:16;8.07;;;7.57;;
46284;SDS011;32018;59.182;18.148;2024-03-02T03:01:42;8.73;;;8.10;;
46284;SDS011;32018;59.182;18.148;2024-03-02T03:04:07;9.73;;;9.10;;
46284;SDS011;32018;59.182;18.148;2024-03-02T03:06:32;8.20;;;7.60;;
46284;SDS011;32018;59.182;18.148;2024-03-02T03:08:57;9.02;;;8.43;;
46284;SDS011;32018;59.182;18.148;2024-03-02T03:11:23;8.60;;;8.00;;
46284;SDS011;32018;59.182;18.148;2024-03-02T03:13:49;8.27;;;7.70;;
46284;SDS011;32018;59.182;18.148;2024-03-02T03:16:15;8.93;;;8.35;;
46284;SDS011;32018;59.182;18.148;2024-03-02T03:18:40;8.30;;;7.80;;
46284;SDS011;32018;59.182;18.148;2024-03-02T03:21:05;8.80;;;8.20;;
46284;SDS011;32018;59.182;18.148;2024-03-02T03:23:30;10.63;;;9.93;;
46284;SDS011;32018;59.182;18.148;2024-03-02T03:25:55;8.10;;;7.50;;
46284;SDS011;32018;59.182;18.148;2024-03-02T03:28:21;8.32;;;7.80;;
46284;SDS011;32018;59.182;18.148;2024-03-02T03:30:46;8.35;;;7.85;;
46284;SDS011;32018;59.182;18.148;2024-03-02T03:33:11;8.40;;;7.90;;
46284;SDS011;32018;59.182;18.148;2024-03-02T03:35:36;10.15;;;9.45;;
46284;SDS011;32018;59.182;18.148;2024-03-02T03:38:02;9.13;;;8.52;;
46284;SDS011;32018;59.182;18.148;2024-03-02T03:40:27;8.60;;;8.02;;
46284;SDS011;32018;59.182;18.148;2024-03-02T03:42:52;11.03;;;10.23;;
46284;SDS011;32018;59.182;18.148;2024-03-02T03:45:18;7.93;;;7.43;;
46284;SDS011;32018;59.182;18.148;2024-03-02T03:47:43;8.88;;;8.27;;
46284;SDS011;32018;59.182;18.148;2024-03-02T03:50:08;8.88;;;8.27;;
46284;SDS011;32018;59.182;18.148;2024-03-02T03:52:34;8.65;;;8.05;;
46284;SDS011;32018;59.182;18.148;2024-03-02T03:55:01;7.65;;;7.15;;
46284;SDS011;32018;59.182;18.148;2024-03-02T03:57:27;7.68;;;7.20;;
46284;SDS011;32018;59.182;18.148;2024-03-02T03:59:52;10.35;;;9.65;;
46284;SDS011;32018;59.182;18.148;2024-03-02T04:02:17;7.65;;;7.15;;
46284;SDS011;32018;59.182;18.148;2024-03-02T04:04:43;9.13;;;8.45;;
46284;SDS011;32018;59.182;18.148;2024-03-02T04:07:08;8.63;;;7.95;;
46284;SDS011;32018;59.182;18.148;2024-03-02T04:09:33;8.45;;;7.85;;
46284;SDS011;32018;59.182;18.148;2024-03-02T04:11:59;9.20;;;8.50;;
46284;SDS011;32018;59.182;18.148;2024-03-02T04:14:24;8.90;;;8.40;;
46284;SDS011;32018;59.182;18.148;2024-03-02T04:16:49;8.23;;;7.70;;
46284;SDS011;32018;59.182;18.148;2024-03-02T04:19:14;8.45;;;7.85;;
46284;SDS011;32018;59.182;18.148;2024-03-02T04:21:40;8.57;;;7.97;;
46284;SDS011;32018;59.182;18.148;2024-03-02T04:24:05;9.15;;;8.55;;
46284;SDS011;32018;59.182;18.148;2024-03-02T04:26:30;8.30;;;7.80;;
46284;SDS011;32018;59.182;18.148;2024-03-02T04:28:55;8.25;;;7.75;;
46284;SDS011;32018;59.182;18.148;2024-03-02T04:31:20;8.40;;;7.90;;
46284;SDS011;32018;59.182;18.148;2024-03-02T04:33:46;8.32;;;7.82;;
46284;SDS011;32018;59.182;18.148;2024-03-02T04:36:11;9.10;;;8.50;;
46284;SDS011;32018;59.182;18.148;2024-03-02T04:38:39;8.88;;;8.27;;
46284;SDS011;32018;59.182;18.148;2024-03-02T04:41:05;8.10;;;7.60;;
46284;SDS011;32018;59.182;18.148;2024-03-02T04:43:33;8.90;;;8.30;;
46284;SDS011;32018;59.182;18.148;2024-03-02T04:45:59;9.00;;;8.40;;
46284;SDS011;32018;59.182;18.148;2024-03-02T04:48:24;8.52;;;7.93;;
46284;SDS011;32018;59.182;18.148;2024-03-02T04:50:49;8.75;;;8.15;;
46284;SDS011;32018;59.182;18.148;2024-03-02T04:53:15;9.00;;;8.40;;
46284;SDS011;32018;59.182;18.148;2024-03-02T04:55:40;10.60;;;9.88;;
46284;SDS011;32018;59.182;18.148;2024-03-02T04:58:05;10.63;;;9.82;;
46284;SDS011;32018;59.182;18.148;2024-03-02T05:00:31;11.90;;;10.90;;
46284;SDS011;32018;59.182;18.148;2024-03-02T05:02:56;9.63;;;8.93;;
46284;SDS011;32018;59.182;18.148;2024-03-02T05:05:22;10.27;;;9.57;;
46284;SDS011;32018;59.182;18.148;2024-03-02T05:07:47;9.73;;;9.02;;
46284;SDS011;32018;59.182;18.148;2024-03-02T05:10:12;9.30;;;8.70;;
46284;SDS011;32018;59.182;18.148;2024-03-02T05:12:37;9.63;;;8.95;;
46284;SDS011;32018;59.182;18.148;2024-03-02T05:15:12;8.77;;;8.18;;
46284;SDS011;32018;59.182;18.148;2024-03-02T05:17:38;9.15;;;8.52;;
46284;SDS011;32018;59.182;18.148;2024-03-02T05:20:04;8.90;;;8.30;;
46284;SDS011;32018;59.182;18.148;2024-03-02T05:22:29;8.50;;;7.90;;
46284;SDS011;32018;59.182;18.148;2024-03-02T05:24:54;9.38;;;8.70;;
46284;SDS011;32018;59.182;18.148;2024-03-02T05:27:19;8.60;;;8.00;;
46284;SDS011;32018;59.182;18.148;2024-03-02T05:29:45;9.48;;;8.88;;
46284;SDS011;32018;59.182;18.148;2024-03-02T05:32:10;8.50;;;7.90;;
46284;SDS011;32018;59.182;18.148;2024-03-02T05:34:35;9.00;;;8.40;;
46284;SDS011;32018;59.182;18.148;2024-03-02T05:37:01;8.77;;;8.18;;
46284;SDS011;32018;59.182;18.148;2024-03-02T05:39:26;8.40;;;7.90;;
46284;SDS011;32018;59.182;18.148;2024-03-02T05:41:51;9.45;;;8.77;;
46284;SDS011;32018;59.182;18.148;2024-03-02T05:44:17;8.60;;;8.10;;
46284;SDS011;32018;59.182;18.148;2024-03-02T05:46:43;9.15;;;8.55;;
46284;SDS011;32018;59.182;18.148;2024-03-02T05:49:08;8.10;;;7.55;;
46284;SDS011;32018;59.182;18.148;2024-03-02T05:51:34;9.35;;;8.75;;
46284;SDS011;32018;59.182;18.148;2024-03-02T05:54:00;9.02;;;8.43;;
46284;SDS011;32018;59.182;18.148;2024-03-02T05:56:25;9.75;;;9.05;;
46284;SDS011;32018;59.182;18.148;2024-03-02T05:58:50;9.02;;;8.43;;
46284;SDS011;32018;59.182;18.148;2024-03-02T06:01:18;8.90;;;8.30;;
46284;SDS011;32018;59.182;18.148;2024-03-02T06:03:43;9.18;;;8.57;;
46284;SDS011;32018;59.182;18.148;2024-03-02T06:06:09;8.93;;;8.25;;
46284;SDS011;32018;59.182;18.148;2024-03-02T06:08:34;9.13;;;8.52;;
46284;SDS011;32018;59.182;18.148;2024-03-02T06:11:00;9.45;;;8.85;;
46284;SDS011;32018;59.182;18.148;2024-03-02T06:13:25;9.82;;;9.13;;
46284;SDS011;32018;59.182;18.148;2024-03-02T06:15:51;9.57;;;8.98;;
46284;SDS011;32018;59.182;18.148;2024-03-02T06:18:16;9.48;;;8.80;;
46284;SDS011;32018;59.182;18.148;2024-03-02T06:20:42;10.55;;;9.75;;
46284;SDS011;32018;59.182;18.148;2024-03-02T06:23:07;9.65;;;8.95;;
46284;SDS011;32018;59.182;18.148;2024-03-02T06:25:32;8.98;;;8.38;;
46284;SDS011;32018;59.182;18.148;2024-03-02T06:27:58;8.90;;;8.30;;
46284;SDS011;32018;59.182;18.148;2024-03-02T06:30:23;9.18;;;8.57;;
46284;SDS011;32018;59.182;18.148;2024-03-02T06:32:48;8.38;;;7.78;;
46284;SDS011;32018;59.182;18.148;2024-03-02T06:35:14;8.95;;;8.35;;
46284;SDS011;32018;59.182;18.148;2024-03-02T06:37:39;8.30;;;7.80;;
46284;SDS011;32018;59.182;18.148;2024-03-02T06:40:05;8.82;;;8.23;;
46284;SDS011;32018;59.182;18.148;2024-03-02T06:42:32;8.75;;;8.10;;
46284;SDS011;32018;59.182;18.148;2024-03-02T06:44:58;10.02;;;9.25;;
46284;SDS011;32018;59.182;18.148;2024-03-02T06:47:23;8.63;;;8.02;;
46284;SDS011;32018;59.182;18.148;2024-03-02T06:49:48;11.20;;;10.40;;
46284;SDS011;32018;59.182;18.148;2024-03-02T06:52:14;8.55;;;7.93;;
46284;SDS011;32018;59.182;18.148;2024-03-02T06:54:39;9.68;;;8.77;;
46284;SDS011;32018;59.182;18.148;2024-03-02T06:57:04;10.18;;;9.45;;
46284;SDS011;32018;59.182;18.148;2024-03-02T06:59:29;11.07;;;10.02;;
46284;SDS011;32018;59.182;18.148;2024-03-02T07:01:55;14.30;;;12.98;;
46284;SDS011;32018;59.182;18.148;2024-03-02T07:04:20;9.40;;;8.70;;
46284;SDS011;32018;59.182;18.148;2024-03-02T07:06:45;15.27;;;12.55;;
46284;SDS011;32018;59.182;18.148;2024-03-02T07:09:11;9.95;;;9.25;;
46284;SDS011;32018;59.182;18.148;2024-03-02T07:11:36;8.98;;;8.35;;
46284;SDS011;32018;59.182;18.148;2024-03-02T07:14:01;10.57;;;9.70;;
46284;SDS011;32018;59.182;18.148;2024-03-02T07:16:26;9.65;;;8.95;;
46284;SDS011;32018;59.182;18.148;2024-03-02T07:18:57;15.63;;;12.25;;
46284;SDS011;32018;59.182;18.148;2024-03-02T07:21:24;15.45;;;14.13;;
46284;SDS011;32018;59.182;18.148;2024-03-02T07:23:49;12.35;;;10.65;;
46284;SDS011;32018;59.182;18.148;2024-03-02T07:26:14;13.07;;;11.98;;
46284;SDS011;32018;59.182;18.148;2024-03-02T07:28:40;10.00;;;9.30;;
46284;SDS011;32018;59.182;18.148;2024-03-02T07:31:06;10.48;;;9.77;;
46284;SDS011;32018;59.182;18.148;2024-03-02T07:33:31;11.07;;;10.27;;
46284;SDS011;32018;59.182;18.148;2024-03-02T07:35:57;13.02;;;12.00;;
46284;SDS011;32018;59.182;18.148;2024-03-02T07:38:24;11.88;;;10.98;;
46284;SDS011;32018;59.182;18.148;2024-03-02T07:40:49;9.85;;;9.15;;
46284;SDS011;32018;59.182;18.148;2024-03-02T07:43:18;9.27;;;8.57;;
46284;SDS011;32018;59.182;18.148;2024-03-02T07:45:44;11.48;;;10.57;;
46284;SDS011;32018;59.182;18.148;2024-03-02T07:48:09;13.38;;;12.27;;
46284;SDS011;32018;59.182;18.148;2024-03-02T07:50:34;10.23;;;9.50;;
46284;SDS011;32018;59.182;18.148;2024-03-02T07:53:03;12.10;;;11.20;;
46284;SDS011;32018;59.182;18.148;2024-03-02T07:55:29;12.18;;;10.98;;
46284;SDS011;32018;59.182;18.148;2024-03-02T07:57:54;10.18;;;9.48;;
46284;SDS011;32018;59.182;18.148;2024-03-02T08:00:19;13.23;;;12.07;;
46284;SDS011;32018;59.182;18.148;2024-03-02T08:02:45;11.95;;;10.98;;
46284;SDS011;32018;59.182;18.148;2024-03-02T08:05:10;13.93;;;12.75;;
46284;SDS011;32018;59.182;18.148;2024-03-02T08:07:35;10.23;;;9.48;;
46284;SDS011;32018;59.182;18.148;2024-03-02T08:10:00;14.38;;;13.18;;
46284;SDS011;32018;59.182;18.148;2024-03-02T08:12:26;11.13;;;10.32;;
46284;SDS011;32018;59.182;18.148;2024-03-02T08:14:51;9.73;;;9.00;;
46284;SDS011;32018;59.182;18.148;2024-03-02T08:17:16;13.88;;;12.73;;
46284;SDS011;32018;59.182;18.148;2024-03-02T08:19:42;15.05;;;13.40;;
46284;SDS011;32018;59.182;18.148;2024-03-02T08:22:08;13.98;;;12.65;;
46284;SDS011;32018;59.182;18.148;2024-03-02T08:24:33;14.85;;;12.82;;
46284;SDS011;32018;59.182;18.148;2024-03-02T08:26:59;14.68;;;12.10;;
46284;SDS011;32018;59.182;18.148;2024-03-02T08:29:24;11.52;;;10.73;;
46284;SDS011;32018;59.182;18.148;2024-03-02T08:31:50;12.70;;;11.55;;
46284;SDS011;32018;59.182;18.148;2024-03-02T08:34:15;12.95;;;11.80;;
46284;SDS011;32018;59.182;18.148;2024-03-02T08:36:40;13.30;;;12.30;;
46284;SDS011;32018;59.182;18.148;2024-03-02T08:39:06;11.15;;;10.25;;
46284;SDS011;32018;59.182;18.148;2024-03-02T08:41:37;9.85;;;9.15;;
46284;SDS011;32018;59.182;18.148;2024-03-02T08:44:03;10.32;;;9.52;;
46284;SDS011;32018;59.182;18.148;2024-03-02T08:46:28;10.35;;;9.65;;
46284;SDS011;32018;59.182;18.148;2024-03-02T08:48:53;13.88;;;12.73;;
46284;SDS011;32018;59.182;18.148;2024-03-02T08:51:18;13.45;;;12.23;;
46284;SDS011;32018;59.182;18.148;2024-03-02T08:53:44;13.60;;;12.48;;
46284;SDS011;32018;59.182;18.148;2024-03-02T08:56:09;14.48;;;13.45;;
46284;SDS011;32018;59.182;18.148;2024-03-02T08:58:34;10.57;;;9.88;;
46284;SDS011;32018;59.182;18.148;2024-03-02T09:00:59;12.25;;;11.27;;
46284;SDS011;32018;59.182;18.148;2024-03-02T09:03:25;16.17;;;12.23;;
46284;SDS011;32018;59.182;18.148;2024-03-02T09:05:50;11.27;;;10.48;;
46284;SDS011;32018;59.182;18.148;2024-03-02T09:08:15;14.40;;;12.55;;
46284;SDS011;32018;59.182;18.148;2024-03-02T09:10:40;13.90;;;12.80;;
46284;SDS011;32018;59.182;18.148;2024-03-02T09:13:06;12.80;;;11.50;;
46284;SDS011;32018;59.182;18.148;2024-03-02T09:15:31;12.48;;;11.68;;
46284;SDS011;32018;59.182;18.148;2024-03-02T09:17:56;13.18;;;12.18;;
46284;SDS011;32018;59.182;18.148;2024-03-02T09:20:21;13.00;;;11.80;;
46284;SDS011;32018;59.182;18.148;2024-03-02T09:22:47;12.23;;;11.13;;
46284;SDS011;32018;59.182;18.148;2024-03-02T09:25:13;12.85;;;11.85;;
46284;SDS011;32018;59.182;18.148;2024-03-02T09:27:39;11.23;;;10.43;;
46284;SDS011;32018;59.182;18.148;2024-03-02T09:30:07;10.82;;;10.00;;
46284;SDS011;32018;59.182;18.148;2024-03-02T09:32:33;12.27;;;11.27;;
46284;SDS011;32018;59.182;18.148;2024-03-02T09:34:58;13.13;;;12.13;;
46284;SDS011;32018;59.182;18.148;2024-03-02T09:37:23;10.93;;;10.13;;
46284;SDS011;32018;59.182;18.148;2024-03-02T09:39:49;12.35;;;11.15;;
46284;SDS011;32018;59.182;18.148;2024-03-02T09:42:14;14.02;;;12.77;;
46284;SDS011;32018;59.182;18.148;2024-03-02T09:44:39;11.13;;;10.23;;
46284;SDS011;32018;59.182;18.148;2024-03-02T09:47:06;13.15;;;11.85;;
46284;SDS011;32018;59.182;18.148;2024-03-02T09:49:31;14.63;;;13.43;;
46284;SDS011;32018;59.182;18.148;2024-03-02T09:51:56;14.05;;;12.80;;
46284;SDS011;32018;59.182;18.148;2024-03-02T09:54:22;11.68;;;10.82;;
46284;SDS011;32018;59.182;18.148;2024-03-02T09:56:47;11.35;;;10.55;;
46284;SDS011;32018;59.182;18.148;2024-03-02T09:59:12;12.25;;;11.23;;
46284;SDS011;32018;59.182;18.148;2024-03-02T10:01:54;14.27;;;12.57;;
46284;SDS011;32018;59.182;18.148;2024-03-02T10:04:20;12.55;;;11.45;;
46284;SDS011;32018;59.182;18.148;2024-03-02T10:06:45;14.27;;;12.93;;
46284;SDS011;32018;59.182;18.148;2024-03-02T10:09:13;13.68;;;12.32;;
46284;SDS011;32018;59.182;18.148;2024-03-02T10:11:51;13.35;;;12.05;;
46284;SDS011;32018;59.182;18.148;2024-03-02T10:14:16;13.57;;;12.65;;
46284;SDS011;32018;59.182;18.148;2024-03-02T10:16:44;13.07;;;12.13;;
46284;SDS011;32018;59.182;18.148;2024-03-02T10:19:22;11.98;;;11.10;;
46284;SDS011;32018;59.182;18.148;2024-03-02T10:21:48;13.15;;;12.15;;
46284;SDS011;32018;59.182;18.148;2024-03-02T10:24:14;13.35;;;12.25;;
46284;SDS011;32018;59.182;18.148;2024-03-02T10:26:39;11.55;;;10.73;;
46284;SDS011;32018;59.182;18.148;2024-03-02T10:29:05;13.32;;;12.07;;
46284;SDS011;32018;59.182;18.148;2024-03-02T10:31:30;11.45;;;10.68;;
46284;SDS011;32018;59.182;18.148;2024-03-02T10:33:55;12.70;;;11.48;;
46284;SDS011;32018;59.182;18.148;2024-03-02T10:36:21;24.15;;;21.60;;
46284;SDS011;32018;59.182;18.148;2024-03-02T10:38:46;12.00;;;11.13;;
46284;SDS011;32018;59.182;18.148;2024-03-02T10:41:16;16.35;;;14.85;;
46284;SDS011;32018;59.182;18.148;2024-03-02T10:43:41;13.32;;;12.43;;
46284;SDS011;32018;59.182;18.148;2024-03-02T10:46:07;12.48;;;11.57;;
46284;SDS011;32018;59.182;18.148;2024-03-02T10:48:32;13.95;;;12.82;;
46284;SDS011;32018;59.182;18.148;2024-03-02T10:50:58;12.15;;;11.35;;
46284;SDS011;32018;59.182;18.148;2024-03-02T10:53:26;12.32;;;11.48;;
46284;SDS011;32018;59.182;18.148;2024-03-02T10:55:52;13.23;;;12.23;;
46284;SDS011;32018;59.182;18.148;2024-03-02T10:58:20;12.52;;;11.32;;
46284;SDS011;32018;59.182;18.148;2024-03-02T11:00:45;12.90;;;11.82;;
46284;SDS011;32018;59.182;18.148;2024-03-02T11:03:11;18.08;;;15.90;;
46284;SDS011;32018;59.182;18.148;2024-03-02T11:05:38;14.40;;;12.65;;
46284;SDS011;32018;59.182;18.148;2024-03-02T11:08:13;14.38;;;13.30;;
46284;SDS011;32018;59.182;18.148;2024-03-02T11:11:02;13.63;;;11.40;;
46284;SDS011;32018;59.182;18.148;2024-03-02T11:13:32;12.18;;;10.95;;
46284;SDS011;32018;59.182;18.148;2024-03-02T11:16:06;13.48;;;11.90;;
46284;SDS011;32018;59.182;18.148;2024-03-02T11:18:35;12.38;;;11.30;;
46284;SDS011;32018;59.182;18.148;2024-03-02T11:21:00;11.30;;;10.50;;
46284;SDS011;32018;59.182;18.148;2024-03-02T11:23:33;16.40;;;15.07;;
46284;SDS011;32018;59.182;18.148;2024-03-02T11:28:43;12.98;;;12.02;;
46284;SDS011;32018;59.182;18.148;2024-03-02T11:31:09;14.48;;;13.32;;
46284;SDS011;32018;59.182;18.148;2024-03-02T11:33:34;13.35;;;12.15;;
46284;SDS011;32018;59.182;18.148;2024-03-02T11:35:59;14.40;;;13.07;;
46284;SDS011;32018;59.182;18.148;2024-03-02T11:38:27;14.95;;;13.82;;
46284;SDS011;32018;59.182;18.148;2024-03-02T11:40:52;12.13;;;11.15;;
46284;SDS011;32018;59.182;18.148;2024-03-02T11:43:17;11.68;;;10.68;;
46284;SDS011;32018;59.182;18.148;2024-03-02T11:45:43;11.38;;;10.68;;
46284;SDS011;32018;59.182;18.148;2024-03-02T11:48:09;14.75;;;13.45;;
46284;SDS011;32018;59.182;18.148;2024-03-02T11:50:42;12.68;;;11.75;;
46284;SDS011;32018;59.182;18.148;2024-03-02T11:53:09;12.88;;;11.88;;
46284;SDS011;32018;59.182;18.148;2024-03-02T11:55:39;15.57;;;14.23;;
46284;SDS011;32018;59.182;18.148;2024-03-02T11:58:05;14.05;;;12.95;;
46284;SDS011;32018;59.182;18.148;2024-03-02T12:00:31;53.35;;;26.05;;
46284;SDS011;32018;59.182;18.148;2024-03-02T12:03:29;21.75;;;15.63;;
46284;SDS011;32018;59.182;18.148;2024-03-02T12:05:52;17.83;;;16.33;;
46284;SDS011;32018;59.182;18.148;2024-03-02T12:08:18;19.60;;;17.30;;
46284;SDS011;32018;59.182;18.148;2024-03-02T12:10:43;19.70;;;17.65;;
46284;SDS011;32018;59.182;18.148;2024-03-02T12:13:20;12.95;;;11.95;;
46284;SDS011;32018;59.182;18.148;2024-03-02T12:15:46;13.02;;;11.98;;
46284;SDS011;32018;59.182;18.148;2024-03-02T12:18:11;12.60;;;11.57;;
46284;SDS011;32018;59.182;18.148;2024-03-02T12:20:36;13.07;;;12.18;;
46284;SDS011;32018;59.182;18.148;2024-03-02T12:23:02;14.80;;;13.48;;
46284;SDS011;32018;59.182;18.148;2024-03-02T12:25:28;13.10;;;12.07;;
46284;SDS011;32018;59.182;18.148;2024-03-02T12:27:54;15.50;;;13.93;;
46284;SDS011;32018;59.182;18.148;2024-03-02T12:30:19;20.50;;;18.35;;
46284;SDS011;32018;59.182;18.148;2024-03-02T12:32:45;12.90;;;11.90;;
46284;SDS011;32018;59.182;18.148;2024-03-02T12:35:11;15.95;;;14.55;;
46284;SDS011;32018;59.182;18.148;2024-03-02T12:37:46;13.88;;;12.88;;
46284;SDS011;32018;59.182;18.148;2024-03-02T12:40:12;14.18;;;13.07;;
46284;SDS011;32018;59.182;18.148;2024-03-02T12:42:38;17.83;;;15.88;;
46284;SDS011;32018;59.182;18.148;2024-03-02T12:45:03;14.80;;;13.40;;
46284;SDS011;32018;59.182;18.148;2024-03-02T12:47:29;17.95;;;16.17;;
46284;SDS011;32018;59.182;18.148;2024-03-02T12:49:54;13.80;;;12.80;;
46284;SDS011;32018;59.182;18.148;2024-03-02T12:52:21;11.00;;;10.18;;
46284;SDS011;32018;59.182;18.148;2024-03-02T12:54:46;12.60;;;11.43;;
46284;SDS011;32018;59.182;18.148;2024-03-02T12:57:16;11.75;;;10.82;;
46284;SDS011;32018;59.182;18.148;2024-03-02T12:59:44;12.65;;;11.63;;
46284;SDS011;32018;59.182;18.148;2024-03-02T13:02:16;12.45;;;11.45;;
46284;SDS011;32018;59.182;18.148;2024-03-02T13:04:41;10.98;;;10.07;;
46284;SDS011;32018;59.182;18.148;2024-03-02T13:07:07;12.10;;;11.25;;
46284;SDS011;32018;59.182;18.148;2024-03-02T13:09:32;11.95;;;10.95;;
46284;SDS011;32018;59.182;18.148;2024-03-02T13:11:58;12.20;;;11.13;;
46284;SDS011;32018;59.182;18.148;2024-03-02T13:14:25;12.77;;;11.77;;
46284;SDS011;32018;59.182;18.148;2024-03-02T13:16:51;12.57;;;11.68;;
46284;SDS011;32018;59.182;18.148;2024-03-02T13:19:17;14.57;;;13.57;;
46284;SDS011;32018;59.182;18.148;2024-03-02T13:21:44;15.15;;;13.38;;
46284;SDS011;32018;59.182;18.148;2024-03-02T13:24:09;13.93;;;12.68;;
46284;SDS011;32018;59.182;18.148;2024-03-02T13:26:34;12.05;;;11.15;;
46284;SDS011;32018;59.182;18.148;2024-03-02T13:28:59;11.85;;;10.85;;
46284;SDS011;32018;59.182;18.148;2024-03-02T13:31:25;11.82;;;10.93;;
46284;SDS011;32018;59.182;18.148;2024-03-02T13:33:50;10.85;;;10.00;;
46284;SDS011;32018;59.182;18.148;2024-03-02T13:36:15;13.88;;;12.57;;
46284;SDS011;32018;59.182;18.148;2024-03-02T13:38:40;13.70;;;12.32;;
46284;SDS011;32018;59.182;18.148;2024-03-02T13:41:06;13.63;;;12.52;;
46284;SDS011;32018;59.182;18.148;2024-03-02T13:43:33;14.05;;;13.05;;
46284;SDS011;32018;59.182;18.148;2024-03-02T13:46:00;14.75;;;13.45;;
46284;SDS011;32018;59.182;18.148;2024-03-02T13:48:25;16.67;;;14.85;;
46284;SDS011;32018;59.182;18.148;2024-03-02T13:50:53;21.08;;;17.70;;
46284;SDS011;32018;59.182;18.148;2024-03-02T13:53:18;16.80;;;15.48;;
46284;SDS011;32018;59.182;18.148;2024-03-02T13:55:44;32.47;;;23.65;;
46284;SDS011;32018;59.182;18.148;2024-03-02T13:58:09;14.90;;;13.77;;
46284;SDS011;32018;59.182;18.148;2024-03-02T14:00:35;11.60;;;10.77;;
46284;SDS011;32018;59.182;18.148;2024-03-02T14:03:00;15.25;;;13.73;;
46284;SDS011;32018;59.182;18.148;2024-03-02T14:05:26;17.23;;;15.55;;
46284;SDS011;32018;59.182;18.148;2024-03-02T14:07:51;35.88;;;23.20;;
46284;SDS011;32018;59.182;18.148;2024-03-02T14:10:16;20.80;;;18.88;;
46284;SDS011;32018;59.182;18.148;2024-03-02T14:12:43;16.33;;;12.73;;
46284;SDS011;32018;59.182;18.148;2024-03-02T14:15:08;23.52;;;20.52;;
46284;SDS011;32018;59.182;18.148;2024-03-02T14:17:33;13.65;;;12.45;;
46284;SDS011;32018;59.182;18.148;2024-03-02T14:19:59;13.23;;;12.23;;